createdAt,value
2018-12-14T00:01:22.482Z,17.50
2018-12-14T00:03:51.698Z,17.17
2018-12-14T00:06:20.919Z,16.00
2018-12-14T00:08:49.946Z,16.17
2018-12-14T00:11:19.183Z,18.73
2018-12-14T00:13:48.155Z,16.33
2018-12-14T00:16:17.259Z,18.00
2018-12-14T00:18:46.338Z,16.70
2018-12-14T00:21:15.487Z,18.70
2018-12-14T00:23:45.158Z,18.23
2018-12-14T00:26:14.363Z,18.30
2018-12-14T00:28:43.539Z,18.43
2018-12-14T00:31:12.755Z,15.90
2018-12-14T00:33:41.870Z,19.37
2018-12-14T00:36:11.068Z,17.70
2018-12-14T00:38:40.294Z,18.80
2018-12-14T00:41:09.430Z,16.40
2018-12-14T00:43:38.600Z,17.20
2018-12-14T00:46:10.508Z,18.27
2018-12-14T00:48:39.602Z,20.63
2018-12-14T00:51:08.735Z,19.67
2018-12-14T00:53:37.882Z,21.27
2018-12-14T00:56:07.119Z,20.30
2018-12-14T00:58:36.099Z,17.03
2018-12-14T01:01:05.465Z,18.60
2018-12-14T01:03:35.145Z,19.03
2018-12-14T01:06:04.266Z,21.00
2018-12-14T01:08:33.379Z,19.53
2018-12-14T01:11:02.605Z,18.30
2018-12-14T01:13:31.914Z,21.40
2018-12-14T01:16:01.115Z,18.50
2018-12-14T01:18:30.295Z,18.63
2018-12-14T01:20:59.385Z,20.10
2018-12-14T01:23:28.422Z,21.43
2018-12-14T01:25:57.706Z,19.97
2018-12-14T01:28:27.738Z,20.83
2018-12-14T01:30:56.796Z,20.47
2018-12-14T01:33:26.015Z,20.83
2018-12-14T01:35:55.205Z,17.90
2018-12-14T01:38:24.522Z,22.30
2018-12-14T01:40:53.738Z,22.50
2018-12-14T01:43:22.945Z,16.83
2018-12-14T01:45:52.165Z,20.60
2018-12-14T01:48:21.358Z,20.90
2018-12-14T01:50:50.428Z,19.83
2018-12-14T01:53:21.738Z,21.43
2018-12-14T01:55:50.833Z,19.37
2018-12-14T01:58:19.981Z,20.47
2018-12-14T02:00:49.154Z,22.63
2018-12-14T02:03:18.539Z,20.07
2018-12-14T02:05:47.752Z,18.50
2018-12-14T02:08:18.939Z,20.47
2018-12-14T02:11:08.793Z,19.73
2018-12-14T02:13:37.811Z,18.07
2018-12-14T02:16:32.673Z,15.47
2018-12-14T02:19:02.759Z,16.07
2018-12-14T02:21:32.850Z,16.13
2018-12-14T02:24:01.968Z,19.47
2018-12-14T02:26:31.139Z,20.83
2018-12-14T02:29:00.766Z,20.00
2018-12-14T02:31:29.915Z,18.43
2018-12-14T02:33:59.070Z,21.17
2018-12-14T02:36:28.109Z,18.70
2018-12-14T02:38:57.293Z,21.63
2018-12-14T02:41:26.395Z,19.77
2018-12-14T02:43:56.359Z,17.57
2018-12-14T02:46:35.964Z,19.00
2018-12-14T02:49:05.167Z,18.30
2018-12-14T02:51:34.702Z,20.37
2018-12-14T02:54:03.882Z,19.50
2018-12-14T02:56:33.041Z,21.77
2018-12-14T02:59:02.406Z,20.33
2018-12-14T03:01:58.893Z,18.73
2018-12-14T03:04:38.006Z,20.40
2018-12-14T03:07:06.956Z,16.17
2018-12-14T03:09:36.130Z,18.40
2018-12-14T03:12:05.141Z,17.77
2018-12-14T03:14:34.345Z,19.00
2018-12-14T03:17:03.530Z,22.30
2018-12-14T03:19:32.513Z,17.90
2018-12-14T03:22:01.515Z,19.40
2018-12-14T03:25:00.673Z,18.50
2018-12-14T03:27:39.064Z,17.10
2018-12-14T03:30:09.692Z,20.23
2018-12-14T03:38:33.738Z,16.40
2018-12-14T03:41:02.857Z,18.30
2018-12-14T03:43:31.965Z,22.10
2018-12-14T03:46:01.015Z,22.93
2018-12-14T03:48:30.079Z,20.70
2018-12-14T03:50:59.823Z,20.80
2018-12-14T03:53:28.808Z,22.20
2018-12-14T03:55:57.976Z,23.07
2018-12-14T03:58:26.951Z,24.17
2018-12-14T04:00:56.099Z,24.50
2018-12-14T04:03:25.322Z,21.30
2018-12-14T04:05:55.595Z,24.13
2018-12-14T04:08:24.620Z,26.23
2018-12-14T04:10:53.786Z,26.37
2018-12-14T04:13:22.880Z,24.93
2018-12-14T04:15:51.817Z,23.63
2018-12-14T04:18:20.854Z,24.47
2018-12-14T04:20:49.900Z,23.20
2018-12-14T04:23:19.083Z,22.70
2018-12-14T04:25:48.044Z,24.27
2018-12-14T04:28:17.130Z,23.83
2018-12-14T04:30:46.384Z,22.93
2018-12-14T04:33:16.315Z,22.87
2018-12-14T04:35:45.668Z,23.00
2018-12-14T04:38:14.834Z,25.37
2018-12-14T04:40:44.183Z,21.50
2018-12-14T04:43:16.869Z,24.10
2018-12-14T04:45:45.801Z,23.00
2018-12-14T04:48:14.795Z,24.73
2018-12-14T04:50:43.825Z,24.27
2018-12-14T04:53:12.770Z,21.83
2018-12-14T04:55:44.765Z,27.80
2018-12-14T04:58:14.282Z,23.07
2018-12-14T05:00:43.188Z,26.47
2018-12-14T05:03:12.334Z,21.87
2018-12-14T05:05:41.480Z,21.90
2018-12-14T05:08:10.911Z,23.27
2018-12-14T05:10:40.823Z,23.07
2018-12-14T05:13:34.614Z,23.67
2018-12-14T05:16:03.565Z,18.60
2018-12-14T05:18:32.617Z,22.77
2018-12-14T05:21:01.758Z,17.83
2018-12-14T05:23:30.834Z,19.87
2018-12-14T05:25:59.853Z,19.50
2018-12-14T05:28:28.917Z,19.53
2018-12-14T05:30:59.227Z,20.10
2018-12-14T05:33:28.342Z,18.03
2018-12-14T05:40:11.730Z,21.40
2018-12-14T05:42:40.775Z,19.30
2018-12-14T05:45:11.693Z,20.33
2018-12-14T05:47:40.727Z,18.60
2018-12-14T05:50:09.851Z,20.70
2018-12-14T05:52:39.007Z,19.47
2018-12-14T05:55:08.154Z,20.90
2018-12-14T05:57:37.211Z,19.50
2018-12-14T06:00:09.405Z,21.00
2018-12-14T06:02:38.463Z,19.53
2018-12-14T06:05:07.715Z,21.03
2018-12-14T06:07:36.775Z,20.83
2018-12-14T06:10:06.910Z,24.87
2018-12-14T06:12:36.547Z,24.50
2018-12-14T06:15:06.175Z,24.57
2018-12-14T06:17:35.616Z,25.40
2018-12-14T06:20:04.971Z,22.50
2018-12-14T06:22:34.075Z,22.40
2018-12-14T06:25:03.283Z,23.80
2018-12-14T06:27:32.790Z,25.90
2018-12-14T06:30:01.996Z,21.40
2018-12-14T06:32:35.310Z,25.03
2018-12-14T06:35:04.474Z,22.43
2018-12-14T06:37:33.526Z,23.40
2018-12-14T06:40:02.838Z,22.23
2018-12-14T06:42:31.979Z,20.50
2018-12-14T06:45:01.144Z,21.83
2018-12-14T06:47:31.099Z,26.27
2018-12-14T06:50:00.299Z,22.27
2018-12-14T06:52:29.463Z,21.17
2018-12-14T06:54:58.551Z,22.83
2018-12-14T06:57:27.725Z,21.53
2018-12-14T06:59:56.733Z,22.83
2018-12-14T07:02:25.888Z,21.60
2018-12-14T07:04:55.034Z,21.07
2018-12-14T07:07:24.087Z,21.93
2018-12-14T07:09:53.927Z,20.67
2018-12-14T07:12:23.890Z,21.17
2018-12-14T07:14:53.018Z,19.20
2018-12-14T07:17:22.178Z,20.67
2018-12-14T07:19:52.690Z,21.83
2018-12-14T07:22:21.902Z,24.97
2018-12-14T07:24:50.909Z,24.53
2018-12-14T07:27:20.116Z,24.47
2018-12-14T07:29:49.238Z,23.27
2018-12-14T07:32:18.315Z,30.10
2018-12-14T07:34:47.431Z,28.73
2018-12-14T07:37:18.615Z,27.17
2018-12-14T07:39:47.639Z,27.67
2018-12-14T07:42:16.823Z,26.00
2018-12-14T07:44:46.024Z,24.73
2018-12-14T07:47:15.936Z,24.67
2018-12-14T07:49:44.949Z,26.47
2018-12-14T07:52:14.114Z,25.50
2018-12-14T07:54:43.198Z,22.80
2018-12-14T07:57:12.335Z,26.37
2018-12-14T07:59:41.502Z,26.53
2018-12-14T08:02:10.603Z,25.17
2018-12-14T08:04:39.993Z,25.40
2018-12-14T08:07:09.183Z,23.37
2018-12-14T08:09:38.279Z,23.67
2018-12-14T08:12:07.387Z,24.23
2018-12-14T08:14:37.327Z,24.87
2018-12-14T08:17:06.479Z,24.60
2018-12-14T08:19:38.883Z,22.87
2018-12-14T08:22:07.884Z,22.73
2018-12-14T08:24:44.517Z,25.13
2018-12-14T08:27:16.682Z,23.80
2018-12-14T08:29:45.802Z,27.03
2018-12-14T08:32:15.954Z,26.70
2018-12-14T08:34:50.796Z,27.93
2018-12-14T08:37:16.155Z,23.80
2018-12-14T08:39:45.439Z,26.17
2018-12-14T08:42:15.522Z,30.50
2018-12-14T08:44:45.444Z,27.37
2018-12-14T08:47:14.627Z,28.87
2018-12-14T08:49:43.733Z,29.13
2018-12-14T08:52:12.899Z,25.77
2018-12-14T08:54:44.195Z,24.07
2018-12-14T08:57:13.447Z,25.70
2018-12-14T08:59:42.562Z,27.60
2018-12-14T09:02:11.880Z,29.53
2018-12-14T09:04:44.659Z,28.90
2018-12-14T09:07:13.819Z,24.90
2018-12-14T09:09:42.926Z,24.87
2018-12-14T09:12:12.007Z,27.53
2018-12-14T09:14:42.370Z,29.00
2018-12-14T09:17:11.560Z,31.83
2018-12-14T09:19:40.850Z,31.60
2018-12-14T09:24:35.623Z,27.77
2018-12-14T09:27:04.731Z,26.50
2018-12-14T09:29:33.804Z,32.30
2018-12-14T09:32:02.870Z,29.20
2018-12-14T09:34:32.343Z,29.60
2018-12-14T09:37:01.835Z,24.77
2018-12-14T09:39:30.960Z,27.70
2018-12-14T09:42:00.103Z,29.33
2018-12-14T09:44:29.154Z,30.00
2018-12-14T09:46:58.518Z,28.77
2018-12-14T09:49:28.067Z,25.10
2018-12-14T09:52:01.039Z,28.20
2018-12-14T09:54:30.082Z,25.60
2018-12-14T09:57:00.379Z,28.63
2018-12-14T09:59:29.911Z,26.67
2018-12-14T10:01:59.090Z,26.20
2018-12-14T10:04:28.219Z,24.97
2018-12-14T10:06:57.321Z,28.03
2018-12-14T10:09:26.403Z,27.97
2018-12-14T10:12:08.604Z,25.10
2018-12-14T10:15:12.242Z,22.80
2018-12-14T10:17:41.423Z,24.20
2018-12-14T10:20:11.107Z,24.83
2018-12-14T10:22:43.660Z,25.30
2018-12-14T10:25:16.563Z,25.40
2018-12-14T10:27:49.887Z,26.10
2018-12-14T10:30:22.876Z,27.33
2018-12-14T10:32:56.223Z,22.07
2018-12-14T10:35:29.039Z,26.40
2018-12-14T10:38:06.075Z,23.43
2018-12-14T10:40:39.192Z,20.80
2018-12-14T10:43:11.413Z,26.17
2018-12-14T10:45:44.623Z,23.67
2018-12-14T10:48:22.700Z,22.47
2018-12-14T10:50:51.746Z,21.30
2018-12-14T10:53:23.988Z,25.87
2018-12-14T10:56:00.802Z,23.77
2018-12-14T10:58:38.799Z,26.93
2018-12-14T11:01:16.919Z,23.77
2018-12-14T11:03:50.034Z,22.70
2018-12-14T11:06:23.322Z,22.67
2018-12-14T11:08:56.187Z,25.87
2018-12-14T11:11:29.567Z,24.47
2018-12-14T11:14:02.591Z,25.20
2018-12-14T11:16:35.475Z,23.50
2018-12-14T11:19:07.763Z,22.37
2018-12-14T11:21:40.102Z,24.10
2018-12-14T11:24:13.227Z,24.53
2018-12-14T11:26:46.219Z,23.37
2018-12-14T11:29:19.463Z,21.07
2018-12-14T11:31:54.246Z,24.17
2018-12-14T11:34:30.545Z,23.90
2018-12-14T11:37:03.643Z,26.03
2018-12-14T11:39:58.652Z,25.50
2018-12-14T11:42:36.103Z,26.00
2018-12-14T11:45:13.003Z,26.60
2018-12-14T11:47:46.250Z,25.30
2018-12-14T11:50:19.205Z,25.90
2018-12-14T11:52:56.353Z,24.07
2018-12-14T11:55:29.347Z,23.47
2018-12-14T11:58:03.650Z,23.67
2018-12-14T12:00:40.263Z,23.90
2018-12-14T12:03:13.247Z,21.83
2018-12-14T12:05:45.472Z,20.50
2018-12-14T12:08:22.832Z,21.37
2018-12-14T12:10:55.571Z,20.03
2018-12-14T12:13:27.838Z,20.10
2018-12-14T12:16:00.851Z,19.50
2018-12-14T12:18:34.833Z,18.70
2018-12-14T12:21:13.650Z,19.70
2018-12-14T12:23:45.911Z,18.83
2018-12-14T12:26:16.955Z,21.83
2018-12-14T12:28:50.111Z,19.77
2018-12-14T12:31:26.775Z,19.37
2018-12-14T12:33:59.732Z,18.77
2018-12-14T12:36:32.692Z,19.03
2018-12-14T12:39:10.437Z,21.73
2018-12-14T12:41:47.931Z,19.50
2018-12-14T12:44:20.511Z,21.50
2018-12-14T12:46:54.374Z,19.30
2018-12-14T12:49:27.609Z,17.83
2018-12-14T12:52:00.777Z,20.63
2018-12-14T12:54:39.311Z,19.77
2018-12-14T12:57:11.452Z,20.20
2018-12-14T12:59:46.939Z,18.43
2018-12-14T13:02:19.251Z,18.47
2018-12-14T13:04:52.371Z,16.70
2018-12-14T13:07:24.921Z,18.80
2018-12-14T13:09:59.399Z,18.67
2018-12-14T13:12:35.751Z,17.20
2018-12-14T13:15:13.691Z,17.73
2018-12-14T13:17:46.396Z,18.27
2018-12-14T13:20:19.412Z,16.47
2018-12-14T13:22:56.251Z,17.83
2018-12-14T13:25:28.580Z,17.63
2018-12-14T13:28:00.931Z,17.23
2018-12-14T13:30:34.081Z,16.10
2018-12-14T13:33:07.074Z,21.63
2018-12-14T13:35:40.031Z,17.93
2018-12-14T13:38:18.026Z,17.70
2018-12-14T13:40:51.038Z,18.27
2018-12-14T13:43:21.877Z,17.00
2018-12-14T13:45:53.108Z,14.83
2018-12-14T13:48:29.711Z,19.33
2018-12-14T13:51:06.555Z,17.63
2018-12-14T13:53:43.928Z,16.20
2018-12-14T13:56:16.574Z,14.53
2018-12-14T13:58:51.150Z,18.03
2018-12-14T14:01:28.570Z,17.13
2018-12-14T14:04:01.635Z,16.70
2018-12-14T14:06:34.467Z,18.37
2018-12-14T14:09:07.631Z,15.47
2018-12-14T14:11:40.424Z,16.37
2018-12-14T14:14:17.178Z,14.97
2018-12-14T14:16:51.815Z,18.37
2018-12-14T14:19:25.194Z,14.67
2018-12-14T14:21:58.454Z,14.67
2018-12-14T14:24:31.268Z,16.70
2018-12-14T14:27:04.170Z,17.77
2018-12-14T14:29:37.103Z,15.60
2018-12-14T14:32:10.951Z,16.80
2018-12-14T14:34:44.051Z,14.77
2018-12-14T14:37:21.294Z,14.77
2018-12-14T14:39:54.195Z,15.30
2018-12-14T14:42:27.411Z,14.13
2018-12-14T14:45:00.065Z,14.40
2018-12-14T14:47:33.071Z,16.90
2018-12-14T14:50:09.435Z,17.57
2018-12-14T14:52:42.850Z,13.73
2018-12-14T14:55:17.185Z,14.40
2018-12-14T14:57:50.192Z,15.13
2018-12-14T15:00:23.212Z,15.13
2018-12-14T15:02:55.990Z,14.50
2018-12-14T15:05:36.975Z,15.50
2018-12-14T15:08:10.031Z,14.87
2018-12-14T15:10:46.636Z,17.20
2018-12-14T15:13:21.472Z,16.70
2018-12-14T15:15:54.695Z,18.40
2018-12-14T15:18:27.434Z,16.17
2018-12-14T15:21:00.251Z,15.70
2018-12-14T15:23:33.170Z,16.83
2018-12-14T15:26:06.082Z,15.60
2018-12-14T15:28:39.171Z,15.57
2018-12-14T15:31:12.190Z,15.83
2018-12-14T15:33:45.396Z,14.67
2018-12-14T15:36:18.591Z,14.20
2018-12-14T15:38:51.610Z,17.20
2018-12-14T15:41:24.554Z,17.20
2018-12-14T15:43:57.618Z,16.10
2018-12-14T15:46:31.016Z,20.00
2018-12-14T15:49:03.736Z,15.07
2018-12-14T15:51:36.519Z,15.60
2018-12-14T15:54:09.742Z,13.33
2018-12-14T15:56:46.790Z,14.77
2018-12-14T15:59:21.080Z,14.67
2018-12-14T16:01:57.734Z,14.50
2018-12-14T16:04:34.186Z,15.50
2018-12-14T16:07:11.239Z,14.37
2018-12-14T16:09:43.311Z,16.30
2018-12-14T16:12:16.392Z,14.03
2018-12-14T16:14:49.467Z,14.33
2018-12-14T16:17:21.967Z,14.60
2018-12-14T16:19:55.549Z,16.10
2018-12-14T16:22:26.091Z,17.10
2018-12-14T16:24:58.726Z,16.20
2018-12-14T16:27:31.951Z,14.80
2018-12-14T16:30:05.116Z,14.87
2018-12-14T16:32:37.530Z,17.33
2018-12-14T16:35:10.697Z,15.20
2018-12-14T16:37:47.911Z,14.60
2018-12-14T16:40:22.287Z,14.70
2018-12-14T16:42:55.165Z,16.40
2018-12-14T16:45:28.471Z,16.13
2018-12-14T16:48:01.331Z,14.83
2018-12-14T16:50:34.473Z,12.97
2018-12-14T16:53:07.295Z,14.57
2018-12-14T16:55:40.612Z,14.77
2018-12-14T16:58:13.553Z,16.47
2018-12-14T17:00:47.615Z,17.33
2018-12-14T17:03:20.001Z,14.27
2018-12-14T17:05:57.029Z,17.70
2018-12-14T17:08:35.297Z,14.47
2018-12-14T17:11:08.723Z,15.00
2018-12-14T17:13:45.731Z,14.70
2018-12-14T17:16:22.698Z,15.27
2018-12-14T17:18:59.933Z,14.33
2018-12-14T17:21:32.887Z,15.87
2018-12-14T17:24:05.650Z,14.77
2018-12-14T17:26:39.026Z,17.70
2018-12-14T17:29:12.811Z,17.53
2018-12-14T17:31:49.479Z,15.43
2018-12-14T17:34:22.536Z,15.90
2018-12-14T17:36:55.435Z,15.80
2018-12-14T17:39:28.100Z,13.80
2018-12-14T17:42:01.084Z,15.40
2018-12-14T17:44:34.500Z,16.60
2018-12-14T17:47:07.055Z,15.30
2018-12-14T17:49:40.046Z,17.50
2018-12-14T17:52:13.870Z,16.80
2018-12-14T17:54:47.347Z,15.37
2018-12-14T17:57:21.120Z,16.93
2018-12-14T17:59:54.207Z,15.30
2018-12-14T18:02:27.462Z,14.87
2018-12-14T18:05:00.522Z,16.00
2018-12-14T18:07:33.727Z,16.20
2018-12-14T18:10:06.583Z,15.97
2018-12-14T18:12:39.523Z,14.30
2018-12-14T18:15:16.583Z,16.67
2018-12-14T18:17:53.247Z,16.20
2018-12-14T18:20:30.326Z,14.17
2018-12-14T18:23:03.364Z,16.90
2018-12-14T18:25:40.419Z,14.80
2018-12-14T18:28:13.623Z,15.07
2018-12-14T18:30:46.871Z,14.53
2018-12-14T18:33:19.999Z,14.67
2018-12-14T18:35:52.698Z,15.87
2018-12-14T18:38:29.532Z,14.43
2018-12-14T18:41:02.422Z,13.07
2018-12-14T18:43:39.267Z,14.97
2018-12-14T18:46:16.111Z,15.93
2018-12-14T18:48:49.611Z,17.50
2018-12-14T18:51:26.399Z,15.60
2018-12-14T18:54:03.519Z,16.93
2018-12-14T18:56:37.586Z,17.10
2018-12-14T18:59:11.019Z,17.57
2018-12-14T19:01:43.142Z,15.60
2018-12-14T19:04:16.639Z,16.50
2018-12-14T19:06:49.442Z,15.70
2018-12-14T19:09:22.332Z,14.90
2018-12-14T19:11:55.508Z,18.00
2018-12-14T19:14:28.514Z,16.37
2018-12-14T19:17:01.356Z,14.90
2018-12-14T19:19:34.508Z,17.23
2018-12-14T19:22:07.843Z,17.60
2018-12-14T19:24:39.319Z,15.67
2018-12-14T19:27:16.232Z,18.50
2018-12-14T19:29:49.339Z,15.67
2018-12-14T19:32:26.458Z,15.50
2018-12-14T19:34:59.479Z,18.80
2018-12-14T19:37:36.567Z,19.10
2018-12-14T19:40:11.008Z,16.47
2018-12-14T19:42:44.005Z,19.77
2018-12-14T19:45:21.103Z,18.40
2018-12-14T19:47:57.690Z,15.93
2018-12-14T19:50:31.111Z,18.27
2018-12-14T19:53:08.487Z,19.80
2018-12-14T19:55:41.624Z,19.13
2018-12-14T19:58:14.927Z,18.67
2018-12-14T20:00:47.984Z,16.80
2018-12-14T20:03:24.764Z,16.93
2018-12-14T20:05:57.799Z,19.33
2018-12-14T20:08:34.603Z,19.67
2018-12-14T20:11:07.755Z,18.67
2018-12-14T20:13:40.445Z,19.13
2018-12-14T20:16:13.996Z,18.70
2018-12-14T20:18:46.938Z,16.13
2018-12-14T20:21:19.910Z,18.10
2018-12-14T20:23:56.450Z,18.83
2018-12-14T20:26:27.519Z,18.27
2018-12-14T20:29:04.894Z,19.67
2018-12-14T20:31:38.647Z,17.27
2018-12-14T20:34:12.243Z,20.60
2018-12-14T20:36:49.397Z,18.20
2018-12-14T20:39:22.523Z,16.70
2018-12-14T20:41:59.280Z,18.73
2018-12-14T20:44:30.365Z,19.03
2018-12-14T20:47:07.379Z,19.40
2018-12-14T20:49:44.407Z,19.80
2018-12-14T20:52:17.968Z,17.60
2018-12-14T20:54:50.642Z,17.23
2018-12-14T20:57:27.419Z,19.70
2018-12-14T21:00:01.049Z,22.70
2018-12-14T21:02:38.059Z,18.50
2018-12-14T21:05:11.019Z,20.83
2018-12-14T21:07:47.919Z,19.87
2018-12-14T21:10:25.134Z,21.00
2018-12-14T21:12:58.139Z,19.73
2018-12-14T21:15:35.364Z,20.87
2018-12-14T21:18:12.254Z,17.33
2018-12-14T21:20:49.384Z,20.77
2018-12-14T21:23:22.711Z,19.63
2018-12-14T21:26:00.191Z,22.53
2018-12-14T21:28:33.260Z,21.37
2018-12-14T21:31:06.303Z,19.50
2018-12-14T21:33:43.482Z,18.20
2018-12-14T21:36:16.203Z,20.10
2018-12-14T21:38:53.156Z,23.70
2018-12-14T21:41:25.686Z,20.07
2018-12-14T21:44:02.628Z,23.20
2018-12-14T21:46:35.427Z,20.47
2018-12-14T21:49:06.143Z,21.23
2018-12-14T21:51:48.463Z,21.70
2018-12-14T21:54:20.975Z,19.97
2018-12-14T21:56:57.916Z,20.23
2018-12-14T21:59:34.665Z,23.17
2018-12-14T22:02:11.590Z,21.83
2018-12-14T22:04:48.723Z,21.03
2018-12-14T22:07:25.435Z,18.73
2018-12-14T22:09:58.303Z,18.57
2018-12-14T22:12:31.211Z,19.57
2018-12-14T22:15:08.016Z,17.97
2018-12-14T22:17:37.023Z,19.60
2018-12-14T22:20:13.303Z,19.53
2018-12-14T22:22:46.433Z,18.87
2018-12-14T22:25:18.825Z,21.70
2018-12-14T22:27:55.143Z,18.90
2018-12-14T22:30:27.968Z,22.33
2018-12-14T22:33:00.707Z,20.07
2018-12-14T22:35:46.967Z,19.90
2018-12-14T22:38:19.652Z,19.10
2018-12-14T22:40:56.280Z,20.20
2018-12-14T22:43:33.287Z,22.47
2018-12-14T22:46:06.130Z,18.30
2018-12-14T22:48:38.892Z,20.83
2018-12-14T22:51:11.420Z,22.07
2018-12-14T22:53:44.627Z,24.03
2018-12-14T22:56:15.387Z,22.23
2018-12-14T22:58:46.523Z,21.00
2018-12-14T23:01:23.291Z,23.77
2018-12-14T23:03:55.944Z,24.70
2018-12-14T23:06:32.798Z,21.30
2018-12-14T23:09:07.213Z,20.80
2018-12-14T23:11:43.990Z,22.07
2018-12-14T23:14:16.869Z,20.53
2018-12-14T23:16:53.651Z,21.07
2018-12-14T23:19:26.675Z,18.10
2018-12-14T23:21:55.838Z,23.10
2018-12-14T23:24:26.439Z,23.57
2018-12-14T23:27:03.019Z,20.43
2018-12-14T23:29:36.651Z,20.60
2018-12-14T23:32:13.122Z,21.17
2018-12-14T23:34:50.121Z,22.47
2018-12-14T23:37:22.812Z,20.20
2018-12-14T23:39:55.807Z,21.23
2018-12-14T23:42:26.658Z,22.73
2018-12-14T23:45:03.393Z,20.83
2018-12-14T23:47:32.482Z,22.77
2018-12-14T23:50:05.002Z,23.67
2018-12-14T23:55:13.834Z,20.37
2018-12-14T23:57:50.094Z,23.20
